createdAt,value
2017-01-30T01:01:46.963Z,23.47
2017-01-30T01:02:15.202Z,23.54
2017-01-30T01:03:14.752Z,23.41
2017-01-30T01:04:14.690Z,23.44
2017-01-30T01:05:14.237Z,23.5
2017-01-30T01:06:14.806Z,23.44
2017-01-30T01:07:14.497Z,23.44
2017-01-30T01:08:14.065Z,23.41
2017-01-30T01:09:14.761Z,23.47
2017-01-30T01:10:14.701Z,23.46
2017-01-30T01:11:14.497Z,23.58
2017-01-30T01:12:14.605Z,23.43
2017-01-30T01:13:14.806Z,23.43
2017-01-30T01:14:14.453Z,23.44
2017-01-30T01:15:14.389Z,23.47
2017-01-30T01:16:14.326Z,23.44
2017-01-30T01:17:13.868Z,23.5
2017-01-30T01:18:14.196Z,23.47
2017-01-30T01:19:14.133Z,23.51
2017-01-30T01:20:13.294Z,23.47
2017-01-30T01:21:14.012Z,23.44
2017-01-30T01:22:13.953Z,23.46
2017-01-30T01:23:13.894Z,23.47
2017-01-30T01:24:13.441Z,23.44
2017-01-30T01:25:13.760Z,23.58
2017-01-30T01:26:13.312Z,23.55
2017-01-30T01:27:13.630Z,23.51
2017-01-30T01:28:13.576Z,23.46
2017-01-30T01:29:13.505Z,23.44
2017-01-30T01:30:13.053Z,23.58
2017-01-30T01:31:13.404Z,23.47
2017-01-30T01:32:12.928Z,23.48
2017-01-30T01:33:12.866Z,23.41
2017-01-30T01:34:13.194Z,23.44
2017-01-30T01:35:13.129Z,23.47
2017-01-30T01:36:12.691Z,23.55
2017-01-30T01:37:12.610Z,23.41
2017-01-30T01:38:12.937Z,23.44
2017-01-30T01:39:12.887Z,23.44
2017-01-30T01:40:12.431Z,23.41
2017-01-30T01:41:12.375Z,23.56
2017-01-30T01:42:12.692Z,23.55
2017-01-30T01:43:12.239Z,23.54
2017-01-30T01:44:12.576Z,23.48
2017-01-30T01:45:12.114Z,23.47
2017-01-30T01:46:12.440Z,23.54
2017-01-30T01:47:12.379Z,23.44
2017-01-30T01:48:12.325Z,23.55
2017-01-30T01:49:11.864Z,23.47
2017-01-30T01:50:12.194Z,23.41
2017-01-30T01:51:12.134Z,23.46
2017-01-30T01:52:12.065Z,23.51
2017-01-30T01:53:11.611Z,23.46
2017-01-30T01:54:11.551Z,23.56
2017-01-30T01:55:11.094Z,23.55
2017-01-30T01:56:11.032Z,23.48
2017-01-30T01:57:11.757Z,23.56
2017-01-30T01:58:11.687Z,23.41
2017-01-30T01:59:11.623Z,23.41
2017-01-30T02:00:11.567Z,23.41
2017-01-30T02:01:11.108Z,23.56
2017-01-30T02:02:11.439Z,23.54
2017-01-30T02:03:10.593Z,23.5
2017-01-30T02:04:11.311Z,23.56
2017-01-30T02:05:11.250Z,23.44
2017-01-30T02:06:11.187Z,23.41
2017-01-30T02:07:11.121Z,23.55
2017-01-30T02:08:11.083Z,23.41
2017-01-30T02:09:10.603Z,23.47
2017-01-30T02:10:10.548Z,23.41
2017-01-30T02:11:10.875Z,23.5
2017-01-30T02:12:10.812Z,23.41
2017-01-30T02:13:10.753Z,23.47
2017-01-30T02:14:10.298Z,23.54
2017-01-30T02:15:09.844Z,23.54
2017-01-30T02:16:10.563Z,23.46
2017-01-30T02:17:10.110Z,23.46
2017-01-30T02:18:10.043Z,23.46
2017-01-30T02:19:09.588Z,23.55
2017-01-30T02:20:09.918Z,23.46
2017-01-30T02:21:09.856Z,23.5
2017-01-30T02:22:10.599Z,23.54
2017-01-30T02:23:10.122Z,23.48
2017-01-30T02:24:10.061Z,23.48
2017-01-30T02:25:09.855Z,23.48
2017-01-30T02:26:09.939Z,23.5
2017-01-30T02:27:09.089Z,23.41
2017-01-30T02:28:09.419Z,23.47
2017-01-30T02:29:10.556Z,23.44
2017-01-30T02:30:09.593Z,23.41
2017-01-30T02:31:09.618Z,23.55
2017-01-30T02:32:09.634Z,23.44
2017-01-30T02:33:08.917Z,23.46
2017-01-30T02:34:09.044Z,23.41
2017-01-30T02:35:09.375Z,23.41
2017-01-30T02:36:08.757Z,23.47
2017-01-30T02:37:08.858Z,23.48
2017-01-30T02:38:08.796Z,23.48
2017-01-30T02:39:08.736Z,23.55
2017-01-30T02:40:09.068Z,23.44
2017-01-30T02:41:08.606Z,23.44
2017-01-30T02:42:08.938Z,23.46
2017-01-30T02:43:08.468Z,23.43
2017-01-30T02:44:08.412Z,23.44
2017-01-30T02:45:08.349Z,23.59
2017-01-30T02:46:08.285Z,23.44
2017-01-30T02:47:08.624Z,23.41
2017-01-30T02:48:08.161Z,23.47
2017-01-30T02:49:07.711Z,23.48
2017-01-30T02:50:08.034Z,23.47
2017-01-30T02:51:07.971Z,23.41
2017-01-30T02:52:07.914Z,23.41
2017-01-30T02:53:07.843Z,23.58
2017-01-30T02:54:07.469Z,23.5
2017-01-30T02:55:07.727Z,23.44
2017-01-30T02:56:08.046Z,23.44
2017-01-30T02:57:07.597Z,23.44
2017-01-30T02:58:07.534Z,23.48
2017-01-30T02:59:07.872Z,23.46
2017-01-30T03:00:07.672Z,23.41
2017-01-30T03:01:06.956Z,23.47
2017-01-30T03:02:07.671Z,23.5
2017-01-30T03:03:07.826Z,23.47
2017-01-30T03:04:07.555Z,23.48
2017-01-30T03:05:07.490Z,23.46
2017-01-30T03:06:07.419Z,23.48
2017-01-30T03:07:06.980Z,23.47
2017-01-30T03:08:06.520Z,23.41
2017-01-30T03:09:07.255Z,23.41
2017-01-30T03:10:07.178Z,23.48
2017-01-30T03:11:06.720Z,23.47
2017-01-30T03:12:07.048Z,23.44
2017-01-30T03:13:06.198Z,23.48
2017-01-30T03:14:06.537Z,23.43
2017-01-30T03:15:06.897Z,23.47
2017-01-30T03:16:06.012Z,23.46
2017-01-30T03:17:06.367Z,23.5
2017-01-30T03:18:06.274Z,23.44
2017-01-30T03:19:06.220Z,23.43
2017-01-30T03:20:06.555Z,23.48
2017-01-30T03:21:06.133Z,23.48
2017-01-30T03:22:06.033Z,23.46
2017-01-30T03:23:06.359Z,23.48
2017-01-30T03:24:06.293Z,23.51
2017-01-30T03:25:05.455Z,23.44
2017-01-30T03:26:06.168Z,23.46
2017-01-30T03:27:05.718Z,23.46
2017-01-30T03:28:06.056Z,23.47
2017-01-30T03:29:05.984Z,23.47
2017-01-30T03:30:05.917Z,23.46
2017-01-30T03:31:05.858Z,23.44
2017-01-30T03:32:05.787Z,23.54
2017-01-30T03:33:05.739Z,23.48
2017-01-30T03:34:04.882Z,23.5
2017-01-30T03:35:05.262Z,23.47
2017-01-30T03:36:05.533Z,23.41
2017-01-30T03:37:05.475Z,23.48
2017-01-30T03:38:05.438Z,23.43
2017-01-30T03:39:05.349Z,23.47
2017-01-30T03:40:05.310Z,23.44
2017-01-30T03:41:05.223Z,23.4
2017-01-30T03:42:05.169Z,23.44
2017-01-30T03:43:04.733Z,23.48
2017-01-30T03:44:04.657Z,23.46
2017-01-30T03:45:04.971Z,23.46
2017-01-30T03:46:04.906Z,23.41
2017-01-30T03:47:04.858Z,23.44
2017-01-30T03:48:04.814Z,23.48
2017-01-30T03:49:04.339Z,23.43
2017-01-30T03:50:04.660Z,23.46
2017-01-30T03:51:04.597Z,23.44
2017-01-30T03:52:03.763Z,23.48
2017-01-30T03:53:04.487Z,23.44
2017-01-30T03:54:04.403Z,23.47
2017-01-30T03:55:04.208Z,23.46
2017-01-30T03:56:04.278Z,23.5
2017-01-30T03:57:03.836Z,23.46
2017-01-30T03:58:03.376Z,23.46
2017-01-30T03:59:04.108Z,23.47
2017-01-30T04:00:03.649Z,23.46
2017-01-30T04:01:03.583Z,23.44
2017-01-30T04:02:06.620Z,23.46
2017-01-30T04:03:03.452Z,23.46
2017-01-30T04:04:03.398Z,23.44
2017-01-30T04:05:03.339Z,23.34
2017-01-30T04:06:03.657Z,23.47
2017-01-30T04:07:03.203Z,23.37
2017-01-30T04:08:03.140Z,23.44
2017-01-30T04:09:03.465Z,23.41
2017-01-30T04:10:03.029Z,23.44
2017-01-30T04:11:03.352Z,23.43
2017-01-30T04:12:02.886Z,23.46
2017-01-30T04:13:03.264Z,23.34
2017-01-30T04:14:03.161Z,23.46
2017-01-30T04:15:02.723Z,23.34
2017-01-30T04:16:02.634Z,23.37
2017-01-30T04:17:02.976Z,23.34
2017-01-30T04:18:02.545Z,23.31
2017-01-30T04:19:02.840Z,23.31
2017-01-30T04:20:02.018Z,23.34
2017-01-30T04:21:02.715Z,23.39
2017-01-30T04:22:02.667Z,23.44
2017-01-30T04:23:01.806Z,23.37
2017-01-30T04:24:02.562Z,23.47
2017-01-30T04:25:02.467Z,23.37
2017-01-30T04:26:02.013Z,23.43
2017-01-30T04:27:02.150Z,23.41
2017-01-30T04:28:02.283Z,23.39
2017-01-30T04:29:02.207Z,23.46
2017-01-30T04:30:02.155Z,23.43
2017-01-30T04:31:01.695Z,23.32
2017-01-30T04:32:01.634Z,23.37
2017-01-30T04:33:01.959Z,23.43
2017-01-30T04:34:01.507Z,23.32
2017-01-30T04:35:01.444Z,23.32
2017-01-30T04:36:01.819Z,23.44
2017-01-30T04:37:01.322Z,23.34
2017-01-30T04:38:01.648Z,23.31
2017-01-30T04:39:01.195Z,23.34
2017-01-30T04:40:01.139Z,23.36
2017-01-30T04:41:01.466Z,23.36
2017-01-30T04:42:01.006Z,23.47
2017-01-30T04:43:01.350Z,23.36
2017-01-30T04:44:01.273Z,23.32
2017-01-30T04:45:01.493Z,23.37
2017-01-30T04:46:01.145Z,23.39
2017-01-30T04:47:01.080Z,23.36
2017-01-30T04:48:01.017Z,23.27
2017-01-30T04:49:00.560Z,23.31
2017-01-30T04:50:00.891Z,23.28
2017-01-30T04:51:00.829Z,23.28
2017-01-30T04:52:00.764Z,23.37
2017-01-30T04:53:00.701Z,23.25
2017-01-30T04:54:00.639Z,23.31
2017-01-30T04:55:00.181Z,23.27
2017-01-30T04:56:00.134Z,23.34
2017-01-30T04:57:00.448Z,23.32
2017-01-30T04:58:00.008Z,23.39
2017-01-30T04:58:59.935Z,23.36
2017-01-30T04:59:59.928Z,23.27
2017-01-30T05:00:59.810Z,23.39
2017-01-30T05:02:00.137Z,23.37
2017-01-30T05:02:59.687Z,23.31
2017-01-30T05:03:59.624Z,23.31
2017-01-30T05:04:59.956Z,23.36
2017-01-30T05:05:59.551Z,23.4
2017-01-30T05:06:59.822Z,23.36
2017-01-30T05:07:59.391Z,23.31
2017-01-30T05:08:59.701Z,23.28
2017-01-30T05:09:59.249Z,23.37
2017-01-30T05:10:59.575Z,23.25
2017-01-30T05:11:59.125Z,23.31
2017-01-30T05:12:59.450Z,23.4
2017-01-30T05:13:59.382Z,23.36
2017-01-30T05:14:58.931Z,23.31
2017-01-30T05:15:59.253Z,23.28
2017-01-30T05:16:58.819Z,23.31
2017-01-30T05:17:58.743Z,23.28
2017-01-30T05:18:59.066Z,23.32
2017-01-30T05:19:58.616Z,23.36
2017-01-30T05:20:58.170Z,23.34
2017-01-30T05:21:58.485Z,23.28
2017-01-30T05:22:58.816Z,23.28
2017-01-30T05:23:58.366Z,23.27
2017-01-30T05:24:58.694Z,23.31
2017-01-30T05:25:58.624Z,23.31
2017-01-30T05:26:58.567Z,23.32
2017-01-30T05:27:58.504Z,23.28
2017-01-30T05:28:58.435Z,23.23
2017-01-30T05:29:57.984Z,23.37
2017-01-30T05:30:57.923Z,23.28
2017-01-30T05:31:57.862Z,23.27
2017-01-30T05:32:58.186Z,23.32
2017-01-30T05:33:57.733Z,23.41
2017-01-30T05:34:57.282Z,23.28
2017-01-30T05:35:57.613Z,23.34
2017-01-30T05:36:57.941Z,23.32
2017-01-30T05:37:57.485Z,23.32
2017-01-30T05:38:57.422Z,23.27
2017-01-30T05:39:57.358Z,23.28
2017-01-30T05:40:56.904Z,23.37
2017-01-30T05:41:57.619Z,23.28
2017-01-30T05:42:57.574Z,23.32
2017-01-30T05:43:57.102Z,23.32
2017-01-30T05:44:57.431Z,23.36
2017-01-30T05:45:56.988Z,23.27
2017-01-30T05:46:56.914Z,23.32
2017-01-30T05:47:56.865Z,23.34
2017-01-30T05:48:57.180Z,23.36
2017-01-30T05:49:56.728Z,23.36
2017-01-30T05:50:56.671Z,23.25
2017-01-30T05:51:56.210Z,23.28
2017-01-30T05:52:57.216Z,23.28
2017-01-30T05:53:56.497Z,23.28
2017-01-30T05:54:56.803Z,23.32
2017-01-30T05:55:56.787Z,23.28
2017-01-30T05:56:56.284Z,23.32
2017-01-30T05:57:56.225Z,23.25
2017-01-30T05:58:55.776Z,23.37
2017-01-30T05:59:56.126Z,23.37
2017-01-30T06:00:56.427Z,23.32
2017-01-30T06:01:55.589Z,23.32
2017-01-30T06:02:55.908Z,23.27
2017-01-30T06:03:55.878Z,23.36
2017-01-30T06:04:56.180Z,23.28
2017-01-30T06:05:55.331Z,23.28
2017-01-30T06:06:56.070Z,23.23
2017-01-30T06:07:55.601Z,23.39
